createdAt,value
2022-09-10T00:02:06.611Z,3.80
2022-09-10T00:04:36.177Z,3.63
2022-09-10T00:07:06.561Z,2.85
2022-09-10T00:09:35.525Z,3.22
2022-09-10T00:12:04.496Z,3.03
2022-09-10T00:14:32.967Z,3.05
2022-09-10T00:17:01.910Z,3.00
2022-09-10T00:19:31.319Z,3.17
2022-09-10T00:22:02.028Z,2.40
2022-09-10T00:24:31.464Z,3.70
2022-09-10T00:27:00.794Z,2.50
2022-09-10T00:29:29.548Z,2.92
2022-09-10T00:31:58.386Z,2.45
2022-09-10T00:34:26.877Z,2.65
2022-09-10T00:36:55.072Z,2.70
2022-09-10T00:39:24.865Z,2.85
2022-09-10T00:41:55.907Z,2.38
2022-09-10T00:44:56.223Z,3.13
2022-09-10T00:47:26.691Z,3.20
2022-09-10T00:49:57.000Z,3.33
2022-09-10T00:52:25.298Z,3.33
2022-09-10T00:54:55.279Z,3.30
2022-09-10T00:57:27.597Z,3.20
2022-09-10T01:02:26.128Z,3.13
2022-09-10T01:04:56.733Z,3.63
2022-09-10T01:07:26.848Z,4.15
2022-09-10T01:09:57.665Z,3.92
2022-09-10T01:12:41.901Z,3.00
2022-09-10T01:15:16.435Z,3.25
2022-09-10T01:17:54.940Z,3.00
2022-09-10T01:20:47.231Z,3.45
2022-09-10T01:23:41.558Z,3.00
2022-09-10T01:26:22.695Z,2.92
2022-09-10T01:28:56.950Z,2.90
2022-09-10T01:31:32.324Z,2.90
2022-09-10T01:34:03.280Z,3.30
2022-09-10T01:36:34.777Z,3.13
2022-09-10T01:39:03.955Z,2.90
2022-09-10T01:41:32.714Z,2.80
2022-09-10T01:44:11.842Z,3.08
2022-09-10T01:46:47.351Z,3.22
2022-09-10T01:49:25.946Z,2.78
2022-09-10T01:52:04.678Z,2.90
2022-09-10T01:54:41.016Z,2.70
2022-09-10T01:57:17.310Z,2.40
2022-09-10T01:59:51.969Z,2.55
2022-09-10T02:02:23.110Z,2.50
2022-09-10T02:04:53.142Z,3.70
2022-09-10T02:07:24.254Z,2.65
2022-09-10T02:09:57.276Z,2.47
2022-09-10T02:12:25.645Z,3.00
2022-09-10T02:14:56.372Z,2.85
2022-09-10T02:17:31.176Z,2.38
2022-09-10T02:20:00.231Z,2.67
2022-09-10T02:22:31.838Z,3.00
2022-09-10T02:25:00.528Z,2.72
2022-09-10T02:27:29.985Z,2.80
2022-09-10T02:29:59.843Z,2.55
2022-09-10T02:32:28.992Z,2.83
2022-09-10T02:34:57.523Z,3.00
2022-09-10T02:37:26.392Z,2.60
2022-09-10T02:39:55.703Z,2.88
2022-09-10T02:42:26.555Z,2.90
2022-09-10T02:44:54.786Z,3.00
2022-09-10T02:47:24.835Z,2.60
2022-09-10T02:49:53.085Z,2.45
2022-09-10T02:52:26.113Z,3.08
2022-09-10T02:54:54.787Z,3.40
2022-09-10T02:57:24.714Z,3.17
2022-09-10T02:59:53.964Z,3.10
2022-09-10T03:02:24.344Z,2.92
2022-09-10T03:04:53.863Z,2.97
2022-09-10T03:07:22.119Z,3.25
2022-09-10T03:09:53.111Z,2.85
2022-09-10T03:12:21.633Z,3.05
2022-09-10T03:14:50.457Z,3.35
2022-09-10T03:17:19.167Z,3.88
2022-09-10T03:19:47.550Z,3.35
2022-09-10T03:22:17.608Z,3.30
2022-09-10T03:24:47.231Z,3.38
2022-09-10T03:27:16.411Z,4.43
2022-09-10T03:29:45.296Z,3.95
2022-09-10T03:32:13.477Z,3.55
2022-09-10T03:34:41.674Z,3.20
2022-09-10T03:37:10.096Z,3.47
2022-09-10T03:39:39.748Z,3.40
2022-09-10T03:42:07.976Z,3.35
2022-09-10T03:44:38.594Z,3.65
2022-09-10T03:47:07.988Z,3.50
2022-09-10T03:49:36.240Z,3.20
2022-09-10T03:52:05.227Z,3.58
2022-09-10T03:54:33.803Z,3.40
2022-09-10T03:57:04.781Z,2.83
2022-09-10T03:59:32.955Z,3.03
2022-09-10T04:02:01.208Z,3.35
2022-09-10T04:04:31.694Z,3.22
2022-09-10T04:07:01.599Z,3.20
2022-09-10T04:09:35.253Z,3.42
2022-09-10T04:12:06.167Z,3.22
2022-09-10T04:14:34.645Z,3.20
2022-09-10T04:17:03.801Z,3.17
2022-09-10T04:19:33.856Z,3.55
2022-09-10T04:22:02.058Z,3.13
2022-09-10T04:24:30.335Z,3.72
2022-09-10T04:26:59.061Z,3.42
2022-09-10T04:29:28.987Z,3.78
2022-09-10T04:31:58.330Z,3.30
2022-09-10T04:34:31.144Z,3.70
2022-09-10T04:37:00.082Z,4.03
2022-09-10T04:39:28.423Z,3.50
2022-09-10T04:41:56.675Z,3.53
2022-09-10T04:44:25.462Z,3.40
2022-09-10T04:46:55.000Z,3.30
2022-09-10T04:49:23.123Z,3.75
2022-09-10T04:51:51.461Z,3.72
2022-09-10T04:54:19.773Z,3.70
2022-09-10T04:56:48.597Z,3.53
2022-09-10T04:59:16.624Z,3.00
2022-09-10T05:01:47.680Z,3.15
2022-09-10T05:04:17.967Z,2.92
2022-09-10T05:06:47.667Z,2.80
2022-09-10T05:09:16.048Z,2.72
2022-09-10T05:11:44.316Z,3.17
2022-09-10T05:14:12.643Z,2.40
2022-09-10T05:16:41.222Z,2.58
2022-09-10T05:19:17.683Z,2.85
2022-09-10T05:21:47.809Z,2.28
2022-09-10T05:24:16.550Z,2.67
2022-09-10T05:26:46.365Z,2.53
2022-09-10T05:29:15.136Z,2.58
2022-09-10T05:31:44.830Z,1.98
2022-09-10T05:34:15.022Z,1.83
2022-09-10T05:36:47.375Z,2.20
2022-09-10T05:39:24.044Z,2.22
2022-09-10T05:41:52.387Z,2.53
2022-09-10T05:44:20.556Z,2.22
2022-09-10T05:46:49.589Z,2.15
2022-09-10T05:49:25.871Z,2.03
2022-09-10T05:52:00.825Z,2.13
2022-09-10T05:54:30.159Z,1.95
2022-09-10T05:57:01.174Z,1.83
2022-09-10T05:59:29.903Z,1.75
2022-09-10T06:02:07.918Z,1.65
2022-09-10T06:04:37.169Z,1.90
2022-09-10T06:07:08.725Z,1.20
2022-09-10T06:09:37.730Z,1.83
2022-09-10T06:12:09.874Z,1.20
2022-09-10T06:14:38.085Z,1.50
2022-09-10T06:17:06.566Z,1.70
2022-09-10T06:19:36.949Z,1.30
2022-09-10T06:22:06.936Z,1.85
2022-09-10T06:24:37.658Z,1.30
2022-09-10T06:27:07.214Z,1.60
2022-09-10T06:29:36.925Z,2.10
2022-09-10T06:32:08.312Z,1.63
2022-09-10T06:34:36.720Z,1.23
2022-09-10T06:37:07.576Z,1.73
2022-09-10T06:39:36.357Z,1.73
2022-09-10T06:42:05.363Z,1.30
2022-09-10T06:44:34.201Z,1.45
2022-09-10T06:47:42.746Z,1.40
2022-09-10T06:49:50.542Z,1.35
2022-09-10T06:52:21.428Z,1.25
2022-09-10T06:54:52.126Z,1.20
2022-09-10T06:57:22.239Z,1.33
2022-09-10T06:59:50.921Z,1.23
2022-09-10T07:02:19.668Z,0.98
2022-09-10T07:04:50.019Z,1.52
2022-09-10T07:07:21.255Z,1.40
2022-09-10T07:09:50.984Z,0.90
2022-09-10T07:12:19.078Z,1.38
2022-09-10T07:14:47.893Z,1.10
2022-09-10T07:17:21.991Z,1.50
2022-09-10T07:19:50.720Z,1.20
2022-09-10T07:22:21.327Z,1.17
2022-09-10T07:24:51.554Z,1.42
2022-09-10T07:27:19.666Z,1.40
2022-09-10T07:29:47.947Z,1.50
2022-09-10T07:32:16.255Z,1.25
2022-09-10T07:34:46.942Z,1.40
2022-09-10T07:37:15.988Z,1.00
2022-09-10T07:39:46.095Z,1.00
2022-09-10T07:42:15.454Z,1.42
2022-09-10T07:44:43.581Z,1.15
2022-09-10T07:47:11.560Z,1.58
2022-09-10T07:49:39.590Z,1.20
2022-09-10T07:52:09.892Z,1.40
2022-09-10T07:54:40.818Z,1.08
2022-09-10T07:57:09.381Z,1.43
2022-09-10T07:59:40.394Z,1.30
2022-09-10T08:02:11.086Z,1.35
2022-09-10T08:04:43.205Z,1.20
2022-09-10T08:07:12.506Z,1.02
2022-09-10T08:09:41.265Z,25.55
2022-09-10T08:12:09.859Z,28.08
2022-09-10T08:14:40.449Z,1.98
2022-09-10T08:17:09.754Z,1.95
2022-09-10T08:19:39.518Z,2.45
2022-09-10T08:22:13.864Z,1.10
2022-09-10T08:24:42.555Z,1.30
2022-09-10T08:27:17.456Z,1.23
2022-09-10T08:29:47.699Z,0.90
2022-09-10T08:32:16.855Z,0.85
2022-09-10T08:34:45.309Z,1.05
2022-09-10T08:37:13.880Z,1.30
2022-09-10T08:39:42.911Z,1.45
2022-09-10T08:42:18.271Z,0.73
2022-09-10T08:44:51.659Z,1.00
2022-09-10T08:47:33.568Z,1.10
2022-09-10T08:52:40.612Z,1.40
2022-09-10T08:55:23.139Z,1.20
2022-09-10T08:57:55.293Z,1.10
2022-09-10T09:00:26.347Z,0.85
2022-09-10T09:03:01.489Z,1.20
2022-09-10T09:05:41.795Z,1.00
2022-09-10T09:08:15.811Z,1.02
2022-09-10T09:10:48.104Z,1.20
2022-09-10T09:13:36.046Z,1.00
2022-09-10T09:16:17.194Z,1.13
2022-09-10T09:19:01.684Z,0.90
2022-09-10T09:21:40.130Z,1.33
2022-09-10T09:24:18.656Z,0.95
2022-09-10T09:26:51.262Z,1.10
2022-09-10T09:29:22.112Z,1.33
2022-09-10T09:31:57.652Z,1.13
2022-09-10T09:34:33.921Z,1.25
2022-09-10T09:37:04.590Z,1.17
2022-09-10T09:39:38.993Z,1.00
2022-09-10T09:42:14.507Z,1.00
2022-09-10T09:44:48.735Z,1.20
2022-09-10T09:47:18.327Z,1.30
2022-09-10T09:49:47.076Z,1.13
2022-09-10T09:52:20.609Z,1.25
2022-09-10T09:55:14.720Z,1.35
2022-09-10T09:57:43.691Z,1.00
2022-09-10T10:00:36.361Z,0.90
2022-09-10T10:03:08.372Z,0.77
2022-09-10T10:05:36.639Z,1.13
2022-09-10T10:08:04.727Z,1.00
2022-09-10T10:10:33.113Z,0.95
2022-09-10T10:13:04.617Z,1.10
2022-09-10T10:15:37.973Z,1.30
2022-09-10T10:18:26.552Z,0.82
2022-09-10T10:21:14.972Z,1.10
2022-09-10T10:23:46.066Z,1.30
2022-09-10T10:26:30.396Z,0.70
2022-09-10T10:29:01.323Z,1.45
2022-09-10T10:31:41.013Z,1.40
2022-09-10T10:34:36.856Z,1.02
2022-09-10T10:37:14.304Z,1.40
2022-09-10T10:39:56.469Z,1.08
2022-09-10T10:42:34.871Z,1.25
2022-09-10T10:45:19.597Z,1.38
2022-09-10T10:47:50.114Z,1.58
2022-09-10T10:50:28.068Z,1.17
2022-09-10T10:53:26.892Z,1.13
2022-09-10T10:56:03.114Z,0.70
2022-09-10T10:58:54.475Z,1.17
2022-09-10T11:01:26.821Z,1.05
2022-09-10T11:04:03.087Z,0.90
2022-09-10T11:06:40.429Z,0.82
2022-09-10T11:09:15.421Z,1.05
2022-09-10T11:11:53.362Z,0.98
2022-09-10T11:14:27.349Z,0.80
2022-09-10T11:16:59.693Z,1.35
2022-09-10T11:19:38.362Z,1.05
2022-09-10T11:22:14.837Z,1.10
2022-09-10T11:24:48.266Z,0.80
2022-09-10T11:27:19.271Z,0.88
2022-09-10T11:29:52.235Z,0.75
2022-09-10T11:32:32.420Z,1.00
2022-09-10T11:35:07.292Z,0.70
2022-09-10T11:37:47.936Z,0.68
2022-09-10T11:40:21.087Z,0.60
2022-09-10T11:42:53.107Z,0.82
2022-09-10T11:48:00.505Z,0.90
2022-09-10T11:50:34.740Z,0.68
2022-09-10T11:53:07.637Z,0.63
2022-09-10T11:55:44.608Z,0.98
2022-09-10T11:58:17.107Z,0.60
2022-09-10T12:00:52.823Z,0.60
2022-09-10T12:03:41.107Z,0.63
2022-09-10T12:06:17.942Z,0.80
2022-09-10T12:09:10.730Z,0.65
2022-09-10T12:11:48.032Z,0.60
2022-09-10T12:14:19.089Z,0.85
2022-09-10T12:16:51.578Z,0.68
2022-09-10T12:19:24.635Z,0.85
2022-09-10T12:21:55.015Z,0.88
2022-09-10T12:24:33.241Z,0.50
2022-09-10T12:27:05.362Z,0.70
2022-09-10T12:29:37.618Z,0.85
2022-09-10T12:32:37.319Z,0.90
2022-09-10T12:35:58.158Z,0.95
2022-09-10T12:38:55.673Z,1.02
2022-09-10T12:42:00.489Z,0.88
2022-09-10T12:44:33.729Z,0.90
2022-09-10T12:47:29.788Z,0.75
2022-09-10T12:49:59.774Z,0.82
2022-09-10T12:52:42.716Z,0.80
2022-09-10T12:55:20.783Z,0.70
2022-09-10T12:57:55.168Z,0.90
2022-09-10T13:00:24.241Z,0.77
2022-09-10T13:02:55.026Z,0.88
2022-09-10T13:05:30.290Z,0.70
2022-09-10T13:08:06.796Z,0.60
2022-09-10T13:10:35.233Z,0.90
2022-09-10T13:13:07.392Z,0.65
2022-09-10T13:18:24.449Z,0.80
2022-09-10T13:20:53.598Z,0.77
2022-09-10T13:23:41.301Z,0.80
2022-09-10T13:26:44.021Z,0.80
2022-09-10T13:29:28.291Z,0.95
2022-09-10T13:32:01.403Z,1.00
2022-09-10T13:34:57.246Z,0.93
2022-09-10T13:37:36.559Z,1.00
2022-09-10T13:40:44.008Z,0.93
2022-09-10T13:43:25.488Z,0.73
2022-09-10T13:45:59.714Z,1.17
2022-09-10T13:48:30.955Z,1.20
2022-09-10T13:51:05.612Z,1.25
2022-09-10T13:53:36.739Z,0.95
2022-09-10T13:56:12.318Z,1.10
2022-09-10T13:58:48.519Z,0.85
2022-09-10T14:01:19.984Z,1.00
2022-09-10T14:03:50.115Z,0.95
2022-09-10T14:06:22.919Z,0.98
2022-09-10T14:08:54.591Z,1.20
2022-09-10T14:11:25.233Z,1.33
2022-09-10T14:13:58.038Z,1.20
2022-09-10T14:16:32.884Z,1.38
2022-09-10T14:19:04.083Z,1.02
2022-09-10T14:21:33.050Z,1.42
2022-09-10T14:24:01.412Z,1.15
2022-09-10T14:26:34.265Z,1.50
2022-09-10T14:29:03.944Z,1.58
2022-09-10T14:31:45.536Z,1.30
2022-09-10T14:34:32.087Z,1.60
2022-09-10T14:37:01.062Z,1.40
2022-09-10T14:39:29.985Z,1.58
2022-09-10T14:42:13.737Z,1.70
2022-09-10T14:44:42.903Z,1.80
2022-09-10T14:47:26.996Z,1.60
2022-09-10T14:49:57.055Z,1.80
2022-09-10T14:52:25.242Z,1.65
2022-09-10T14:54:53.634Z,1.48
2022-09-10T14:57:23.285Z,1.58
2022-09-10T14:59:56.648Z,1.63
2022-09-10T15:02:28.466Z,1.77
2022-09-10T15:04:57.530Z,2.20
2022-09-10T15:07:27.459Z,2.22
2022-09-10T15:09:56.258Z,2.05
2022-09-10T15:12:26.022Z,2.25
2022-09-10T15:14:54.290Z,2.30
2022-09-10T15:17:23.080Z,1.90
2022-09-10T15:19:53.560Z,1.50
2022-09-10T15:22:23.475Z,1.80
2022-09-10T15:25:09.071Z,2.10
2022-09-10T15:27:39.604Z,2.10
2022-09-10T15:30:08.944Z,2.25
2022-09-10T15:32:37.203Z,2.55
2022-09-10T15:35:08.917Z,2.17
2022-09-10T15:37:37.788Z,3.20
2022-09-10T15:40:09.289Z,3.55
2022-09-10T15:42:37.475Z,3.78
2022-09-10T15:45:05.998Z,3.67
2022-09-10T15:47:36.285Z,2.90
2022-09-10T15:50:07.478Z,3.10
2022-09-10T15:52:35.695Z,2.80
2022-09-10T15:55:03.897Z,2.85
2022-09-10T15:57:31.926Z,2.30
2022-09-10T16:00:01.808Z,2.10
2022-09-10T16:02:30.014Z,2.10
2022-09-10T16:04:58.261Z,2.40
2022-09-10T16:07:28.234Z,1.92
2022-09-10T16:09:57.354Z,2.80
2022-09-10T16:12:26.230Z,2.13
2022-09-10T16:14:58.664Z,2.40
2022-09-10T16:17:26.982Z,2.45
2022-09-10T16:19:56.472Z,2.20
2022-09-10T16:22:25.568Z,2.35
2022-09-10T16:24:55.184Z,2.17
2022-09-10T16:27:28.034Z,2.40
2022-09-10T16:29:56.563Z,2.75
2022-09-10T16:32:25.759Z,2.13
2022-09-10T16:34:54.117Z,2.40
2022-09-10T16:37:23.399Z,2.15
2022-09-10T16:39:51.726Z,2.75
2022-09-10T16:42:21.366Z,2.47
2022-09-10T16:44:52.343Z,2.38
2022-09-10T16:47:20.663Z,2.25
2022-09-10T16:49:49.029Z,2.55
2022-09-10T16:52:17.047Z,2.60
2022-09-10T16:54:46.052Z,2.25
2022-09-10T16:57:15.341Z,2.90
2022-09-10T16:59:44.806Z,2.88
2022-09-10T17:02:13.397Z,2.50
2022-09-10T17:04:42.540Z,2.78
2022-09-10T17:07:10.595Z,2.80
2022-09-10T17:09:40.615Z,2.55
2022-09-10T17:12:12.030Z,2.85
2022-09-10T17:14:42.525Z,2.70
2022-09-10T17:17:12.680Z,2.53
2022-09-10T17:19:43.028Z,2.60
2022-09-10T17:22:11.781Z,3.10
2022-09-10T17:24:40.256Z,2.88
2022-09-10T17:27:09.149Z,3.65
2022-09-10T17:29:38.523Z,4.18
2022-09-10T17:32:06.552Z,4.28
2022-09-10T17:34:35.894Z,4.50
2022-09-10T17:37:03.936Z,3.47
2022-09-10T17:39:32.485Z,3.25
2022-09-10T17:42:00.844Z,3.80
2022-09-10T17:44:31.005Z,3.83
2022-09-10T17:47:01.981Z,3.05
2022-09-10T17:49:32.660Z,3.17
2022-09-10T17:52:03.512Z,3.65
2022-09-10T17:54:32.639Z,3.97
2022-09-10T17:57:01.257Z,3.92
2022-09-10T17:59:30.292Z,3.40
2022-09-10T18:01:59.541Z,3.72
2022-09-10T18:04:28.161Z,4.28
2022-09-10T18:06:57.109Z,3.22
2022-09-10T18:09:26.996Z,4.00
2022-09-10T18:11:56.534Z,4.05
2022-09-10T18:14:25.975Z,3.17
2022-09-10T18:16:55.569Z,4.22
2022-09-10T18:19:23.863Z,3.95
2022-09-10T18:21:52.448Z,3.63
2022-09-10T18:24:24.252Z,3.17
2022-09-10T18:26:55.036Z,3.38
2022-09-10T18:29:25.068Z,4.07
2022-09-10T18:31:55.817Z,4.13
2022-09-10T18:34:27.528Z,3.60
2022-09-10T18:36:57.897Z,3.38
2022-09-10T18:39:27.332Z,3.80
2022-09-10T18:41:57.216Z,3.40
2022-09-10T18:44:27.563Z,3.28
2022-09-10T18:46:57.191Z,9.23
2022-09-10T18:49:26.461Z,6.68
2022-09-10T18:51:56.026Z,3.95
2022-09-10T18:54:28.948Z,4.03
2022-09-10T18:56:58.853Z,3.60
2022-09-10T18:59:27.977Z,3.88
2022-09-10T19:01:56.723Z,3.95
2022-09-10T19:04:26.823Z,4.55
2022-09-10T19:06:55.907Z,4.10
2022-09-10T19:09:27.061Z,22.02
2022-09-10T19:11:56.566Z,33.92
2022-09-10T19:14:27.261Z,24.73
2022-09-10T19:16:57.020Z,5.00
2022-09-10T19:19:26.474Z,4.78
2022-09-10T19:21:57.034Z,5.63
2022-09-10T19:24:38.134Z,4.97
2022-09-10T19:27:14.744Z,4.82
2022-09-10T19:29:44.473Z,4.82
2022-09-10T19:32:15.300Z,4.95
2022-09-10T19:34:44.887Z,5.18
2022-09-10T19:37:13.381Z,6.50
2022-09-10T19:39:42.419Z,6.45
2022-09-10T19:42:12.677Z,7.03
2022-09-10T19:44:41.364Z,5.78
2022-09-10T19:47:10.875Z,8.90
2022-09-10T19:49:39.092Z,8.40
2022-09-10T19:52:07.372Z,8.85
2022-09-10T19:54:37.275Z,8.75
2022-09-10T19:57:08.585Z,10.60
2022-09-10T19:59:38.457Z,9.55
2022-09-10T20:02:09.427Z,9.13
2022-09-10T20:04:39.892Z,8.98
2022-09-10T20:07:11.305Z,9.25
2022-09-10T20:09:40.236Z,9.20
2022-09-10T20:12:09.357Z,8.98
2022-09-10T20:14:40.580Z,8.15
2022-09-10T20:17:09.467Z,7.93
2022-09-10T20:19:41.659Z,7.28
2022-09-10T20:22:10.722Z,6.82
2022-09-10T20:24:43.786Z,6.47
2022-09-10T20:27:19.536Z,7.32
2022-09-10T20:29:47.904Z,5.97
2022-09-10T20:32:16.630Z,6.45
2022-09-10T20:34:51.130Z,7.15
2022-09-10T20:37:19.619Z,7.80
2022-09-10T20:39:48.768Z,8.13
2022-09-10T20:42:17.226Z,9.70
2022-09-10T20:44:47.139Z,8.82
2022-09-10T20:47:15.362Z,8.93
2022-09-10T20:49:43.650Z,8.48
2022-09-10T20:52:13.288Z,9.27
2022-09-10T20:54:41.999Z,9.25
2022-09-10T20:57:11.532Z,9.13
2022-09-10T20:59:40.079Z,9.73
2022-09-10T21:02:09.260Z,11.52
2022-09-10T21:04:37.492Z,11.15
2022-09-10T21:07:05.663Z,11.02
2022-09-10T21:09:35.404Z,11.75
2022-09-10T21:12:06.184Z,16.35
2022-09-10T21:14:34.458Z,13.93
2022-09-10T21:17:02.936Z,13.35
2022-09-10T21:19:31.049Z,12.52
2022-09-10T21:21:59.095Z,12.82
2022-09-10T21:24:27.417Z,13.48
2022-09-10T21:26:57.282Z,12.50
2022-09-10T21:29:25.670Z,13.00
2022-09-10T21:31:55.019Z,15.00
2022-09-10T21:34:26.295Z,13.32
2022-09-10T21:36:55.251Z,14.35
2022-09-10T21:39:24.741Z,13.90
2022-09-10T21:41:53.444Z,14.07
2022-09-10T21:44:25.177Z,14.20
2022-09-10T21:46:54.245Z,14.05
2022-09-10T21:49:23.977Z,13.75
2022-09-10T21:51:55.031Z,15.57
2022-09-10T21:54:24.283Z,15.07
2022-09-10T21:56:53.486Z,14.98
2022-09-10T21:59:24.376Z,14.93
2022-09-10T22:01:52.903Z,15.73
2022-09-10T22:04:23.339Z,15.63
2022-09-10T22:06:53.786Z,17.10
2022-09-10T22:09:22.668Z,17.60
2022-09-10T22:11:53.130Z,17.55
2022-09-10T22:14:26.340Z,18.90
2022-09-10T22:16:57.065Z,17.38
2022-09-10T22:19:27.146Z,17.73
2022-09-10T22:21:57.418Z,18.48
2022-09-10T22:24:26.310Z,18.92
2022-09-10T22:26:56.094Z,17.65
2022-09-10T22:29:25.827Z,16.65
2022-09-10T22:31:57.038Z,17.50
2022-09-10T22:34:27.852Z,17.65
2022-09-10T22:36:56.908Z,18.58
2022-09-10T22:39:25.006Z,18.23
2022-09-10T22:41:53.210Z,18.02
2022-09-10T22:44:23.264Z,18.92
2022-09-10T22:46:53.114Z,19.90
2022-09-10T22:49:21.880Z,18.48
2022-09-10T22:51:50.394Z,19.17
2022-09-10T22:54:19.588Z,19.42
2022-09-10T22:56:47.981Z,18.27
2022-09-10T22:59:16.722Z,20.30
2022-09-10T23:01:47.574Z,19.15
2022-09-10T23:04:17.342Z,20.13
2022-09-10T23:06:45.816Z,19.50
2022-09-10T23:09:15.978Z,19.92
2022-09-10T23:11:45.371Z,19.17
2022-09-10T23:14:15.527Z,18.77
2022-09-10T23:16:44.989Z,17.33
2022-09-10T23:19:15.337Z,16.65
2022-09-10T23:21:46.708Z,17.38
2022-09-10T23:24:17.354Z,15.82
2022-09-10T23:26:45.930Z,16.30
2022-09-10T23:29:17.081Z,15.40
2022-09-10T23:31:46.620Z,15.95
2022-09-10T23:34:16.969Z,15.98
2022-09-10T23:36:48.581Z,15.50
2022-09-10T23:39:18.172Z,15.70
2022-09-10T23:41:47.586Z,15.00
2022-09-10T23:44:16.629Z,15.20
2022-09-10T23:46:45.572Z,14.95
2022-09-10T23:49:15.967Z,14.82
2022-09-10T23:51:46.535Z,15.70
2022-09-10T23:54:15.427Z,16.77
2022-09-10T23:56:44.284Z,15.88
2022-09-10T23:59:12.524Z,17.05
